createdAt,value
2023-05-11T00:00:26.531Z,1020.6
2023-05-11T00:01:26.678Z,1020.7
2023-05-11T00:02:26.699Z,1020.7
2023-05-11T00:03:26.699Z,1020.7
2023-05-11T00:04:26.540Z,1020.6
2023-05-11T00:05:26.515Z,1020.6
2023-05-11T00:06:26.655Z,1020.6
2023-05-11T00:07:26.530Z,1020.6
2023-05-11T00:08:26.497Z,1020.6
2023-05-11T00:09:26.481Z,1020.6
2023-05-11T00:10:26.521Z,1020.6
2023-05-11T00:11:26.571Z,1020.6
2023-05-11T00:12:26.547Z,1020.6
2023-05-11T00:13:26.456Z,1020.6
2023-05-11T00:14:26.502Z,1020.6
2023-05-11T00:15:26.469Z,1020.6
2023-05-11T00:16:26.592Z,1020.6
2023-05-11T00:17:26.647Z,1020.6
2023-05-11T00:18:26.656Z,1020.6
2023-05-11T00:19:26.507Z,1020.6
2023-05-11T00:20:26.485Z,1020.6
2023-05-11T00:21:26.529Z,1020.6
2023-05-11T00:22:26.460Z,1020.5
2023-05-11T00:23:26.475Z,1020.5
2023-05-11T00:24:26.496Z,1020.6
2023-05-11T00:25:26.480Z,1020.6
2023-05-11T00:26:26.490Z,1020.6
2023-05-11T00:27:26.526Z,1020.6
2023-05-11T00:28:26.464Z,1020.5
2023-05-11T00:29:26.565Z,1020.6
2023-05-11T00:30:26.525Z,1020.6
2023-05-11T00:31:29.543Z,1020.5
2023-05-11T00:32:26.480Z,1020.5
2023-05-11T00:33:26.441Z,1020.6
2023-05-11T00:34:26.522Z,1020.5
2023-05-11T00:35:26.546Z,1020.5
2023-05-11T00:36:26.475Z,1020.5
2023-05-11T00:37:26.521Z,1020.5
2023-05-11T00:38:26.473Z,1020.6
2023-05-11T00:39:26.901Z,1020.5
2023-05-11T00:40:26.549Z,1020.6
2023-05-11T00:41:26.443Z,1020.5
2023-05-11T00:42:26.448Z,1020.5
2023-05-11T00:43:26.400Z,1020.4
2023-05-11T00:44:26.432Z,1020.5
2023-05-11T00:45:26.720Z,1020.5
2023-05-11T00:46:26.470Z,1020.6
2023-05-11T00:47:26.500Z,1020.6
2023-05-11T00:48:26.437Z,1020.6
2023-05-11T00:49:26.404Z,1020.6
2023-05-11T00:50:26.543Z,1020.5
2023-05-11T00:51:26.410Z,1020.6
2023-05-11T00:52:26.384Z,1020.6
2023-05-11T00:53:26.431Z,1020.5
2023-05-11T00:54:26.440Z,1020.5
2023-05-11T00:55:26.456Z,1020.6
2023-05-11T00:56:26.467Z,1020.6
2023-05-11T00:57:26.401Z,1020.5
2023-05-11T00:58:26.441Z,1020.6
2023-05-11T00:59:26.414Z,1020.6
2023-05-11T01:00:26.443Z,1020.6
2023-05-11T01:01:26.672Z,1020.5
2023-05-11T01:02:26.538Z,1020.6
2023-05-11T01:03:26.398Z,1020.5
2023-05-11T01:04:26.395Z,1020.6
2023-05-11T01:05:26.443Z,1020.6
2023-05-11T01:06:26.414Z,1020.6
2023-05-11T01:07:26.467Z,1020.5
2023-05-11T01:08:26.436Z,1020.6
2023-05-11T01:09:26.476Z,1020.6
2023-05-11T01:10:26.431Z,1020.6
2023-05-11T01:11:26.467Z,1020.6
2023-05-11T01:12:26.664Z,1020.6
2023-05-11T01:13:26.699Z,1020.6
2023-05-11T01:14:26.596Z,1020.6
2023-05-11T01:15:26.378Z,1020.6
2023-05-11T01:16:26.455Z,1020.7
2023-05-11T01:17:26.502Z,1020.7
2023-05-11T01:18:26.510Z,1020.6
2023-05-11T01:19:26.453Z,1020.6
2023-05-11T01:20:26.465Z,1020.6
2023-05-11T01:21:26.391Z,1020.6
2023-05-11T01:22:26.395Z,1020.6
2023-05-11T01:23:26.377Z,1020.6
2023-05-11T01:24:26.391Z,1020.5
2023-05-11T01:25:26.398Z,1020.5
2023-05-11T01:26:26.612Z,1020.5
2023-05-11T01:27:26.380Z,1020.6
2023-05-11T01:28:26.402Z,1020.5
2023-05-11T01:29:26.584Z,1020.5
2023-05-11T01:30:30.571Z,1020.6
2023-05-11T01:31:26.438Z,1020.6
2023-05-11T01:32:26.407Z,1020.5
2023-05-11T01:33:26.327Z,1020.5
2023-05-11T01:34:26.580Z,1020.5
2023-05-11T01:35:26.401Z,1020.5
2023-05-11T01:36:26.411Z,1020.6
2023-05-11T01:37:26.468Z,1020.6
2023-05-11T01:38:26.352Z,1020.6
2023-05-11T01:39:26.431Z,1020.5
2023-05-11T01:40:26.387Z,1020.6
2023-05-11T01:41:26.362Z,1020.6
2023-05-11T01:42:26.341Z,1020.5
2023-05-11T01:43:26.342Z,1020.5
2023-05-11T01:44:26.615Z,1020.6
2023-05-11T01:45:26.307Z,1020.6
2023-05-11T01:46:26.467Z,1020.6
2023-05-11T01:47:26.321Z,1020.5
2023-05-11T01:48:26.358Z,1020.6
2023-05-11T01:49:26.310Z,1020.6
2023-05-11T01:50:26.406Z,1020.6
2023-05-11T01:51:26.433Z,1020.5
2023-05-11T01:52:26.308Z,1020.6
2023-05-11T01:53:26.291Z,1020.5
2023-05-11T01:54:26.344Z,1020.6
2023-05-11T01:55:26.368Z,1020.5
2023-05-11T01:56:26.389Z,1020.6
2023-05-11T01:57:26.339Z,1020.6
2023-05-11T01:58:26.404Z,1020.6
2023-05-11T01:59:26.342Z,1020.5
2023-05-11T02:00:26.519Z,1020.5
2023-05-11T02:01:26.335Z,1020.6
2023-05-11T02:02:26.347Z,1020.6
2023-05-11T02:03:26.443Z,1020.6
2023-05-11T02:04:26.359Z,1020.6
2023-05-11T02:05:26.379Z,1020.6
2023-05-11T02:06:26.311Z,1020.6
2023-05-11T02:07:26.416Z,1020.6
2023-05-11T02:08:26.297Z,1020.5
2023-05-11T02:09:26.356Z,1020.5
2023-05-11T02:10:26.257Z,1020.6
2023-05-11T02:11:26.286Z,1020.6
2023-05-11T02:12:26.310Z,1020.6
2023-05-11T02:13:26.286Z,1020.6
2023-05-11T02:14:26.445Z,1020.6
2023-05-11T02:15:26.287Z,1020.6
2023-05-11T02:16:26.331Z,1020.6
2023-05-11T02:17:26.306Z,1020.6
2023-05-11T02:18:26.428Z,1020.6
2023-05-11T02:19:26.321Z,1020.6
2023-05-11T02:20:26.262Z,1020.5
2023-05-11T02:21:26.398Z,1020.5
2023-05-11T02:22:26.260Z,1020.7
2023-05-11T02:23:26.269Z,1020.6
2023-05-11T02:24:26.249Z,1020.6
2023-05-11T02:25:26.267Z,1020.6
2023-05-11T02:26:26.258Z,1020.6
2023-05-11T02:27:26.298Z,1020.6
2023-05-11T02:28:26.307Z,1020.5
2023-05-11T02:29:26.579Z,1020.5
2023-05-11T02:30:26.276Z,1020.6
2023-05-11T02:31:26.330Z,1020.6
2023-05-11T02:32:26.307Z,1020.6
2023-05-11T02:33:26.228Z,1020.5
2023-05-11T02:34:26.244Z,1020.5
2023-05-11T02:35:26.260Z,1020.6
2023-05-11T02:36:26.330Z,1020.6
2023-05-11T02:37:26.416Z,1020.6
2023-05-11T02:38:26.236Z,1020.6
2023-05-11T02:39:26.315Z,1020.6
2023-05-11T02:40:26.512Z,1020.5
2023-05-11T02:41:26.238Z,1020.6
2023-05-11T02:42:27.321Z,1020.5
2023-05-11T02:43:26.273Z,1020.6
2023-05-11T02:44:26.356Z,1020.5
2023-05-11T02:45:26.250Z,1020.6
2023-05-11T02:46:26.251Z,1020.6
2023-05-11T02:47:26.266Z,1020.6
2023-05-11T02:48:26.245Z,1020.6
2023-05-11T02:49:26.221Z,1020.6
2023-05-11T02:50:26.257Z,1020.6
2023-05-11T02:51:26.336Z,1020.5
2023-05-11T02:52:26.247Z,1020.6
2023-05-11T02:53:26.211Z,1020.6
2023-05-11T02:54:26.274Z,1020.6
2023-05-11T02:55:26.239Z,1020.5
2023-05-11T02:56:26.222Z,1020.6
2023-05-11T02:57:26.307Z,1020.5
2023-05-11T02:58:26.339Z,1020.6
2023-05-11T02:59:26.231Z,1020.5
2023-05-11T03:00:26.506Z,1020.5
2023-05-11T03:01:27.959Z,1020.6
2023-05-11T03:02:31.675Z,1020.5
2023-05-11T03:03:26.238Z,1020.6
2023-05-11T03:04:26.289Z,1020.6
2023-05-11T03:05:26.202Z,1020.5
2023-05-11T03:06:26.197Z,1020.5
2023-05-11T03:07:26.254Z,1020.6
2023-05-11T03:08:26.163Z,1020.7
2023-05-11T03:09:26.180Z,1020.7
2023-05-11T03:10:26.158Z,1020.6
2023-05-11T03:11:26.242Z,1020.6
2023-05-11T03:12:26.202Z,1020.6
2023-05-11T03:13:26.340Z,1020.6
2023-05-11T03:14:26.202Z,1020.6
2023-05-11T03:15:26.207Z,1020.7
2023-05-11T03:16:26.240Z,1020.6
2023-05-11T03:17:26.194Z,1020.6
2023-05-11T03:18:26.213Z,1020.7
2023-05-11T03:19:26.215Z,1020.7
2023-05-11T03:20:26.192Z,1020.7
2023-05-11T03:21:26.176Z,1020.6
2023-05-11T03:22:26.263Z,1020.6
2023-05-11T03:23:26.238Z,1020.6
2023-05-11T03:24:26.371Z,1020.7
2023-05-11T03:25:26.186Z,1020.6
2023-05-11T03:26:26.279Z,1020.7
2023-05-11T03:27:26.464Z,1020.6
2023-05-11T03:28:26.365Z,1020.6
2023-05-11T03:29:26.166Z,1020.6
2023-05-11T03:30:26.227Z,1020.6
2023-05-11T03:31:26.259Z,1020.6
2023-05-11T03:32:26.421Z,1020.7
2023-05-11T03:33:26.192Z,1020.7
2023-05-11T03:34:26.175Z,1020.7
2023-05-11T03:35:26.286Z,1020.6
2023-05-11T03:36:26.150Z,1020.6
2023-05-11T03:37:26.432Z,1020.6
2023-05-11T03:38:26.170Z,1020.7
2023-05-11T03:39:26.186Z,1020.6
2023-05-11T03:40:26.123Z,1020.7
2023-05-11T03:41:26.166Z,1020.7
2023-05-11T03:42:26.182Z,1020.6
2023-05-11T03:43:26.215Z,1020.6
2023-05-11T03:44:26.187Z,1020.6
2023-05-11T03:45:26.139Z,1020.7
2023-05-11T03:46:26.399Z,1020.7
2023-05-11T03:47:26.213Z,1020.7
2023-05-11T03:48:26.290Z,1020.7
2023-05-11T03:49:26.129Z,1020.7
2023-05-11T03:50:26.145Z,1020.6
2023-05-11T03:51:26.162Z,1020.6
2023-05-11T03:52:26.223Z,1020.7
2023-05-11T03:53:26.151Z,1020.7
2023-05-11T03:54:26.143Z,1020.7
2023-05-11T03:55:26.104Z,1020.7
2023-05-11T03:56:26.125Z,1020.7
2023-05-11T03:57:26.438Z,1020.7
2023-05-11T03:58:26.210Z,1020.7
2023-05-11T03:59:26.125Z,1020.7
2023-05-11T04:00:26.110Z,1020.6
2023-05-11T04:01:26.211Z,1020.7
2023-05-11T04:02:26.230Z,1020.8
2023-05-11T04:03:26.274Z,1020.8
2023-05-11T04:04:26.176Z,1020.7
2023-05-11T04:05:26.166Z,1020.7
2023-05-11T04:06:26.086Z,1020.7
2023-05-11T04:07:26.195Z,1020.7
2023-05-11T04:08:26.141Z,1020.7
2023-05-11T04:09:26.259Z,1020.7
2023-05-11T04:10:26.121Z,1020.7
2023-05-11T04:11:26.133Z,1020.7
2023-05-11T04:12:26.083Z,1020.7
2023-05-11T04:13:26.150Z,1020.7
2023-05-11T04:14:26.105Z,1020.7
2023-05-11T04:15:48.923Z,1020.7
2023-05-11T04:16:26.292Z,1020.7
2023-05-11T04:17:26.156Z,1020.7
2023-05-11T04:18:26.134Z,1020.7
2023-05-11T04:19:26.102Z,1020.7
2023-05-11T04:20:26.145Z,1020.7
2023-05-11T04:21:26.091Z,1020.7
2023-05-11T04:22:26.116Z,1020.7
2023-05-11T04:23:26.106Z,1020.7
2023-05-11T04:24:26.125Z,1020.8
2023-05-11T04:25:26.089Z,1020.8
2023-05-11T04:26:26.134Z,1020.7
2023-05-11T04:27:26.064Z,1020.6
2023-05-11T04:28:26.271Z,1020.7
2023-05-11T04:29:26.119Z,1020.7
2023-05-11T04:30:26.049Z,1020.7
2023-05-11T04:31:26.147Z,1020.7
2023-05-11T04:32:26.049Z,1020.7
2023-05-11T04:33:26.127Z,1020.7
2023-05-11T04:34:26.013Z,1020.7
2023-05-11T04:35:26.134Z,1020.7
2023-05-11T04:36:26.048Z,1020.7
2023-05-11T04:37:26.047Z,1020.6
2023-05-11T04:38:26.202Z,1020.7
2023-05-11T04:39:26.072Z,1020.8
2023-05-11T04:40:26.094Z,1020.7
2023-05-11T04:41:26.176Z,1020.7
2023-05-11T04:42:26.091Z,1020.8
2023-05-11T04:43:26.342Z,1020.8
2023-05-11T04:44:26.024Z,1020.8
2023-05-11T04:45:26.062Z,1020.8
2023-05-11T04:46:26.097Z,1020.8
2023-05-11T04:47:26.125Z,1020.8
2023-05-11T04:48:26.085Z,1020.9
2023-05-11T04:49:26.073Z,1020.8
2023-05-11T04:50:26.099Z,1020.8
2023-05-11T04:51:26.081Z,1020.8
2023-05-11T04:52:26.224Z,1020.9
2023-05-11T04:53:26.077Z,1020.8
2023-05-11T04:54:26.017Z,1020.8
2023-05-11T04:55:26.020Z,1020.8
2023-05-11T04:56:26.023Z,1020.7
2023-05-11T04:57:26.040Z,1020.8
2023-05-11T04:58:25.986Z,1020.8
2023-05-11T04:59:26.099Z,1020.9
2023-05-11T05:00:26.022Z,1020.8
2023-05-11T05:01:26.073Z,1020.9
2023-05-11T05:02:26.214Z,1020.8
2023-05-11T05:03:26.017Z,1020.8
2023-05-11T05:04:26.044Z,1020.9
2023-05-11T05:05:26.003Z,1020.8
2023-05-11T05:06:26.070Z,1020.8
2023-05-11T05:07:26.138Z,1020.9
2023-05-11T05:08:26.063Z,1020.8
2023-05-11T05:09:26.083Z,1020.9
2023-05-11T05:10:26.046Z,1020.8
2023-05-11T05:11:25.998Z,1020.8
2023-05-11T05:12:26.005Z,1020.9
2023-05-11T05:13:25.987Z,1020.9
2023-05-11T05:14:25.954Z,1020.8
2023-05-11T05:15:25.962Z,1020.8
2023-05-11T05:16:26.049Z,1020.9
2023-05-11T05:17:26.057Z,1020.9
2023-05-11T05:18:26.000Z,1020.9
2023-05-11T05:19:25.986Z,1020.8
2023-05-11T05:20:25.986Z,1020.9
2023-05-11T05:21:26.000Z,1020.9
2023-05-11T05:22:25.995Z,1020.9
2023-05-11T05:23:25.996Z,1020.9
2023-05-11T05:24:26.009Z,1020.8
2023-05-11T05:25:26.122Z,1020.9
2023-05-11T05:26:26.002Z,1020.9
2023-05-11T05:27:25.961Z,1021.0
2023-05-11T05:28:26.248Z,1020.9
2023-05-11T05:29:25.984Z,1020.9
2023-05-11T05:30:26.116Z,1020.9
2023-05-11T05:31:26.131Z,1020.9
2023-05-11T05:32:26.101Z,1020.9
2023-05-11T05:33:26.142Z,1020.9
2023-05-11T05:34:25.991Z,1020.9
2023-05-11T05:35:25.938Z,1021.0
2023-05-11T05:36:26.210Z,1021.0
2023-05-11T05:37:25.955Z,1020.9
2023-05-11T05:38:27.183Z,1020.9
2023-05-11T05:39:25.970Z,1020.9
2023-05-11T05:40:25.959Z,1020.9
2023-05-11T05:41:25.923Z,1020.9
2023-05-11T05:42:25.932Z,1020.9
2023-05-11T05:43:25.943Z,1020.9
2023-05-11T05:44:25.915Z,1020.9
2023-05-11T05:45:25.969Z,1020.9
2023-05-11T05:46:25.981Z,1020.9
2023-05-11T05:47:26.083Z,1021.0
2023-05-11T05:48:26.010Z,1020.8
2023-05-11T05:49:25.915Z,1020.9
2023-05-11T05:50:25.948Z,1020.9
2023-05-11T05:51:25.913Z,1020.9
2023-05-11T05:52:25.924Z,1020.9
2023-05-11T05:53:25.936Z,1020.9
2023-05-11T05:54:25.931Z,1020.9
2023-05-11T05:55:25.965Z,1020.9
2023-05-11T05:56:26.033Z,1020.9
2023-05-11T05:57:25.915Z,1020.9
2023-05-11T05:58:25.924Z,1020.9
2023-05-11T05:59:25.927Z,1020.9
2023-05-11T06:00:25.941Z,1020.9
2023-05-11T06:01:25.954Z,1020.9
2023-05-11T06:02:26.057Z,1020.9
2023-05-11T06:03:29.061Z,1020.9
2023-05-11T06:04:25.967Z,1020.9
2023-05-11T06:05:25.918Z,1020.9
2023-05-11T06:06:25.926Z,1021.0
2023-05-11T06:07:26.178Z,1021.0
2023-05-11T06:08:26.024Z,1021.0
2023-05-11T06:09:26.438Z,1020.9
2023-05-11T06:10:25.915Z,1021.0
2023-05-11T06:11:25.910Z,1020.9
2023-05-11T06:12:25.979Z,1020.9
2023-05-11T06:13:26.058Z,1021.0
2023-05-11T06:14:25.904Z,1020.9
2023-05-11T06:15:25.853Z,1021.0
2023-05-11T06:16:26.224Z,1020.9
2023-05-11T06:17:26.225Z,1020.9
2023-05-11T06:18:26.336Z,1021.0
2023-05-11T06:19:25.867Z,1021.0
2023-05-11T06:20:26.002Z,1021.0
2023-05-11T06:21:25.883Z,1021.0
2023-05-11T06:22:25.904Z,1021.0
2023-05-11T06:23:25.909Z,1021.0
2023-05-11T06:24:25.900Z,1021.0
2023-05-11T06:25:25.856Z,1021.0
2023-05-11T06:26:25.880Z,1021.0
2023-05-11T06:27:25.913Z,1020.9
2023-05-11T06:28:34.494Z,1021.0
2023-05-11T06:29:25.868Z,1021.0
2023-05-11T06:30:25.861Z,1021.0
2023-05-11T06:31:26.054Z,1021.0
2023-05-11T06:32:25.918Z,1021.0
2023-05-11T06:33:25.867Z,1021.0
2023-05-11T06:34:26.046Z,1021.0
2023-05-11T06:35:25.839Z,1021.0
2023-05-11T06:36:25.893Z,1021.0
2023-05-11T06:37:25.860Z,1021.1
2023-05-11T06:38:25.891Z,1021.0
2023-05-11T06:39:25.878Z,1021.1
2023-05-11T06:40:25.917Z,1021.1
2023-05-11T06:41:25.969Z,1021.0
2023-05-11T06:42:28.109Z,1021.0
2023-05-11T06:43:25.863Z,1021.1
2023-05-11T06:44:25.875Z,1021.1
2023-05-11T06:45:25.954Z,1021.1
2023-05-11T06:46:26.272Z,1021.0
2023-05-11T06:47:36.569Z,1021.1
2023-05-11T06:48:25.867Z,1021.1
2023-05-11T06:49:25.958Z,1021.0
2023-05-11T06:51:25.931Z,1020.9
2023-05-11T06:52:25.875Z,1020.9
2023-05-11T06:53:25.983Z,1021.0
2023-05-11T06:54:25.997Z,1021.0
2023-05-11T06:55:25.896Z,1020.9
2023-05-11T06:56:25.920Z,1021.0
2023-05-11T06:57:25.887Z,1021.0
2023-05-11T06:58:26.136Z,1020.9
2023-05-11T06:59:25.838Z,1020.9
2023-05-11T07:00:25.896Z,1020.9
2023-05-11T07:01:25.866Z,1020.9
2023-05-11T07:02:25.916Z,1021.0
2023-05-11T07:03:26.020Z,1020.9
2023-05-11T07:04:25.981Z,1020.9
2023-05-11T07:05:25.857Z,1020.9
2023-05-11T07:06:25.994Z,1021.0
2023-05-11T07:07:25.885Z,1020.9
2023-05-11T07:08:25.798Z,1020.9
2023-05-11T07:09:25.831Z,1020.9
2023-05-11T07:10:25.936Z,1020.9
2023-05-11T07:11:25.863Z,1020.9
2023-05-11T07:12:25.816Z,1020.9
2023-05-11T07:13:25.871Z,1020.9
2023-05-11T07:14:25.815Z,1020.9
2023-05-11T07:15:25.926Z,1020.8
2023-05-11T07:16:25.870Z,1020.8
2023-05-11T07:17:25.843Z,1020.9
2023-05-11T07:18:25.862Z,1020.8
2023-05-11T07:19:25.840Z,1020.9
2023-05-11T07:20:25.862Z,1020.9
2023-05-11T07:21:25.823Z,1020.8
2023-05-11T07:22:25.809Z,1020.8
2023-05-11T07:23:25.831Z,1020.9
2023-05-11T07:24:25.813Z,1020.9
2023-05-11T07:25:25.770Z,1020.9
2023-05-11T07:26:25.911Z,1020.9
2023-05-11T07:27:25.823Z,1020.8
2023-05-11T07:28:25.824Z,1020.9
2023-05-11T07:29:25.821Z,1020.8
2023-05-11T07:30:26.059Z,1020.8
2023-05-11T07:31:25.893Z,1020.8
2023-05-11T07:32:25.803Z,1020.8
2023-05-11T07:33:25.823Z,1020.9
2023-05-11T07:34:25.899Z,1020.7
2023-05-11T07:35:25.776Z,1020.8
2023-05-11T07:36:25.812Z,1020.8
2023-05-11T07:37:26.079Z,1020.8
2023-05-11T07:38:25.867Z,1020.8
2023-05-11T07:39:25.828Z,1020.7
2023-05-11T07:40:25.780Z,1020.8
2023-05-11T07:41:25.771Z,1020.8
2023-05-11T07:42:25.782Z,1020.8
2023-05-11T07:43:43.534Z,1020.9
2023-05-11T07:44:25.847Z,1020.8
2023-05-11T07:45:25.811Z,1020.8
2023-05-11T07:46:25.808Z,1020.8
2023-05-11T07:47:25.787Z,1020.8
2023-05-11T07:48:25.968Z,1020.8
2023-05-11T07:49:35.533Z,1020.8
2023-05-11T07:50:25.989Z,1020.9
2023-05-11T07:51:25.781Z,1020.8
2023-05-11T07:52:25.744Z,1020.7
2023-05-11T07:53:25.729Z,1020.7
2023-05-11T07:54:25.890Z,1020.8
2023-05-11T07:55:25.806Z,1020.8
2023-05-11T07:56:25.784Z,1020.8
2023-05-11T07:57:25.746Z,1020.8
2023-05-11T07:58:25.775Z,1020.9
2023-05-11T07:59:25.873Z,1020.8
2023-05-11T08:00:25.788Z,1020.8
2023-05-11T08:01:25.737Z,1020.8
2023-05-11T08:02:25.952Z,1020.8
2023-05-11T08:03:25.856Z,1020.8
2023-05-11T08:04:25.721Z,1020.7
2023-05-11T08:05:25.835Z,1020.8
2023-05-11T08:06:25.741Z,1020.8
2023-05-11T08:07:25.708Z,1020.8
2023-05-11T08:08:25.811Z,1020.9
2023-05-11T08:09:25.751Z,1020.8
2023-05-11T08:10:25.874Z,1020.9
2023-05-11T08:11:25.947Z,1020.8
2023-05-11T08:12:25.740Z,1020.8
2023-05-11T08:13:26.032Z,1020.8
2023-05-11T08:14:25.754Z,1020.7
2023-05-11T08:15:25.820Z,1020.8
2023-05-11T08:16:25.759Z,1020.8
2023-05-11T08:17:25.774Z,1020.8
2023-05-11T08:18:25.979Z,1020.9
2023-05-11T08:19:25.740Z,1020.8
2023-05-11T08:20:25.841Z,1020.7
2023-05-11T08:21:25.881Z,1020.9
2023-05-11T08:22:25.682Z,1020.7
2023-05-11T08:23:25.774Z,1020.8
2023-05-11T08:24:25.713Z,1020.8
2023-05-11T08:25:25.756Z,1020.8
2023-05-11T08:26:25.750Z,1020.8
2023-05-11T08:27:25.703Z,1020.7
2023-05-11T08:28:25.788Z,1020.8
2023-05-11T08:29:25.721Z,1020.7
2023-05-11T08:30:25.668Z,1020.7
2023-05-11T08:31:25.813Z,1020.6
2023-05-11T08:32:26.004Z,1020.7
2023-05-11T08:33:37.430Z,1020.7
2023-05-11T08:34:25.976Z,1020.6
2023-05-11T08:35:25.680Z,1020.7
2023-05-11T08:36:25.719Z,1020.7
2023-05-11T08:37:25.709Z,1020.7
2023-05-11T08:38:25.688Z,1020.7
2023-05-11T08:39:43.639Z,1020.6
2023-05-11T08:40:25.680Z,1020.7
2023-05-11T08:41:25.710Z,1020.6
2023-05-11T08:42:25.697Z,1020.6
2023-05-11T08:43:25.776Z,1020.7
2023-05-11T08:44:25.668Z,1020.7
2023-05-11T08:45:25.715Z,1020.6
2023-05-11T08:46:25.839Z,1020.6
2023-05-11T08:47:25.802Z,1020.6
2023-05-11T08:48:25.752Z,1020.6
2023-05-11T08:49:25.768Z,1020.7
2023-05-11T08:50:44.195Z,1020.6
2023-05-11T08:51:25.819Z,1020.6
2023-05-11T08:52:25.762Z,1020.6
2023-05-11T08:53:25.680Z,1020.6
2023-05-11T08:54:25.715Z,1020.6
2023-05-11T08:55:25.687Z,1020.6
2023-05-11T08:56:25.715Z,1020.6
2023-05-11T08:57:25.663Z,1020.5
2023-05-11T08:58:25.677Z,1020.6
2023-05-11T08:59:25.747Z,1020.7
2023-05-11T09:00:25.671Z,1020.7
2023-05-11T09:01:25.728Z,1020.7
2023-05-11T09:02:25.691Z,1020.6
2023-05-11T09:03:25.676Z,1020.5
2023-05-11T09:04:25.794Z,1020.6
2023-05-11T09:05:25.678Z,1020.6
2023-05-11T09:06:25.908Z,1020.6
2023-05-11T09:07:25.651Z,1020.6
2023-05-11T09:08:25.614Z,1020.5
2023-05-11T09:09:25.662Z,1020.5
2023-05-11T09:10:25.698Z,1020.6
2023-05-11T09:11:25.627Z,1020.5
2023-05-11T09:12:25.811Z,1020.6
2023-05-11T09:13:25.632Z,1020.6
2023-05-11T09:14:27.345Z,1020.6
2023-05-11T09:15:25.827Z,1020.6
2023-05-11T09:16:36.762Z,1020.5
2023-05-11T09:17:25.732Z,1020.5
2023-05-11T09:18:25.680Z,1020.5
2023-05-11T09:19:25.724Z,1020.5
2023-05-11T09:20:25.707Z,1020.5
2023-05-11T09:21:25.686Z,1020.5
2023-05-11T09:22:26.481Z,1020.5
2023-05-11T09:23:25.622Z,1020.5
2023-05-11T09:24:25.712Z,1020.5
2023-05-11T09:25:25.661Z,1020.6
2023-05-11T09:26:25.622Z,1020.5
2023-05-11T09:27:25.696Z,1020.4
2023-05-11T09:28:26.146Z,1020.4
2023-05-11T09:29:30.491Z,1020.4
2023-05-11T09:30:25.648Z,1020.4
2023-05-11T09:31:25.669Z,1020.4
2023-05-11T09:32:25.657Z,1020.4
2023-05-11T09:33:25.737Z,1020.4
2023-05-11T09:34:25.644Z,1020.4
2023-05-11T09:35:25.710Z,1020.4
2023-05-11T09:36:25.921Z,1020.5
2023-05-11T09:37:25.779Z,1020.5
2023-05-11T09:38:25.634Z,1020.4
2023-05-11T09:39:35.382Z,1020.4
2023-05-11T09:40:27.421Z,1020.4
2023-05-11T09:41:25.629Z,1020.4
2023-05-11T09:42:25.649Z,1020.4
2023-05-11T09:43:25.640Z,1020.5
2023-05-11T09:44:25.630Z,1020.5
2023-05-11T09:45:25.602Z,1020.4
2023-05-11T09:46:25.619Z,1020.5
2023-05-11T09:47:25.612Z,1020.4
2023-05-11T09:48:25.622Z,1020.4
2023-05-11T09:49:25.627Z,1020.4
2023-05-11T09:50:26.903Z,1020.3
2023-05-11T09:51:25.661Z,1020.4
2023-05-11T09:52:25.651Z,1020.3
2023-05-11T09:53:26.667Z,1020.4
2023-05-11T09:54:25.579Z,1020.3
2023-05-11T09:55:25.612Z,1020.4
2023-05-11T09:56:25.788Z,1020.4
2023-05-11T09:57:25.764Z,1020.4
2023-05-11T09:58:25.786Z,1020.4
2023-05-11T09:59:26.616Z,1020.4
2023-05-11T10:00:25.604Z,1020.4
2023-05-11T10:01:25.618Z,1020.4
2023-05-11T10:02:25.749Z,1020.4
2023-05-11T10:03:25.818Z,1020.4
2023-05-11T10:04:25.780Z,1020.4
2023-05-11T10:05:25.573Z,1020.5
2023-05-11T10:06:25.636Z,1020.4
2023-05-11T10:07:25.679Z,1020.3
2023-05-11T10:08:25.608Z,1020.4
2023-05-11T10:09:53.377Z,1020.3
2023-05-11T10:11:26.410Z,1020.4
2023-05-11T10:12:25.608Z,1020.3
2023-05-11T10:13:25.655Z,1020.3
2023-05-11T10:14:25.585Z,1020.3
2023-05-11T10:15:25.618Z,1020.3
2023-05-11T10:16:25.652Z,1020.4
2023-05-11T10:17:25.715Z,1020.3
2023-05-11T10:18:25.614Z,1020.3
2023-05-11T10:19:25.610Z,1020.3
2023-05-11T10:20:25.548Z,1020.3
2023-05-11T10:21:25.604Z,1020.2
2023-05-11T10:22:25.606Z,1020.2
2023-05-11T10:23:25.552Z,1020.3
2023-05-11T10:24:25.598Z,1020.2
2023-05-11T10:25:25.558Z,1020.2
2023-05-11T10:26:25.616Z,1020.2
2023-05-11T10:27:25.609Z,1020.2
2023-05-11T10:28:25.572Z,1020.2
2023-05-11T10:29:25.595Z,1020.3
2023-05-11T10:30:25.708Z,1020.3
2023-05-11T10:31:25.568Z,1020.3
2023-05-11T10:32:25.587Z,1020.2
2023-05-11T10:33:25.555Z,1020.3
2023-05-11T10:34:36.288Z,1020.3
2023-05-11T10:35:25.555Z,1020.3
2023-05-11T10:36:25.531Z,1020.3
2023-05-11T10:37:25.569Z,1020.2
2023-05-11T10:38:25.614Z,1020.2
2023-05-11T10:39:25.565Z,1020.2
2023-05-11T10:40:25.616Z,1020.3
2023-05-11T10:41:25.805Z,1020.3
2023-05-11T10:42:29.813Z,1020.3
2023-05-11T10:43:25.520Z,1020.3
2023-05-11T10:44:25.604Z,1020.3
2023-05-11T10:45:25.536Z,1020.2
2023-05-11T10:46:26.985Z,1020.2
2023-05-11T10:47:25.565Z,1020.3
2023-05-11T10:48:25.522Z,1020.2
2023-05-11T10:49:25.591Z,1020.1
2023-05-11T10:50:25.527Z,1020.2
2023-05-11T10:51:25.608Z,1020.1
2023-05-11T10:52:26.736Z,1020.2
2023-05-11T10:53:25.525Z,1020.0
2023-05-11T10:54:25.577Z,1020.1
2023-05-11T10:55:25.601Z,1020.1
2023-05-11T10:56:25.632Z,1020.1
2023-05-11T10:57:25.532Z,1020.2
2023-05-11T10:58:25.552Z,1020.2
2023-05-11T10:59:25.483Z,1020.2
2023-05-11T11:00:25.603Z,1020.2
2023-05-11T11:01:25.625Z,1020.2
2023-05-11T11:02:25.565Z,1020.1
2023-05-11T11:03:25.783Z,1020.2
2023-05-11T11:05:25.546Z,1020.3
2023-05-11T11:06:25.494Z,1020.1
2023-05-11T11:07:25.530Z,1020.1
2023-05-11T11:08:25.520Z,1020.1
2023-05-11T11:09:25.536Z,1020.1
2023-05-11T11:10:25.516Z,1020.2
2023-05-11T11:11:25.468Z,1020.1
2023-05-11T11:12:25.527Z,1020.2
2023-05-11T11:13:25.527Z,1020.2
2023-05-11T11:14:25.574Z,1020.1
2023-05-11T11:15:25.523Z,1020.2
2023-05-11T11:16:25.590Z,1020.1
2023-05-11T11:17:25.631Z,1020.2
2023-05-11T11:18:25.618Z,1020.1
2023-05-11T11:19:25.483Z,1020.0
2023-05-11T11:20:25.511Z,1020.1
2023-05-11T11:21:26.224Z,1020.1
2023-05-11T11:22:25.522Z,1020.2
2023-05-11T11:23:25.508Z,1020.1
2023-05-11T11:24:25.525Z,1020.1
2023-05-11T11:25:25.618Z,1020.1
2023-05-11T11:26:27.835Z,1020.2
2023-05-11T11:27:27.690Z,1020.1
2023-05-11T11:28:25.519Z,1020.1
2023-05-11T11:29:25.669Z,1020.1
2023-05-11T11:30:26.855Z,1020.1
2023-05-11T11:31:25.527Z,1020.1
2023-05-11T11:32:25.566Z,1020.1
2023-05-11T11:33:25.474Z,1020.1
2023-05-11T11:34:25.499Z,1020.0
2023-05-11T11:35:25.509Z,1020.1
2023-05-11T11:36:25.523Z,1020.1
2023-05-11T11:37:25.506Z,1020.1
2023-05-11T11:38:27.181Z,1020.0
2023-05-11T11:39:25.547Z,1020.1
2023-05-11T11:40:25.514Z,1020.1
2023-05-11T11:41:25.554Z,1020.1
2023-05-11T11:42:25.440Z,1020.1
2023-05-11T11:43:25.484Z,1020.1
2023-05-11T11:44:25.470Z,1020.1
2023-05-11T11:45:25.493Z,1020.1
2023-05-11T11:46:25.600Z,1020.0
2023-05-11T11:47:25.849Z,1020.1
2023-05-11T11:48:25.614Z,1020.1
2023-05-11T11:49:25.712Z,1020.0
2023-05-11T11:51:35.649Z,1020.1
2023-05-11T11:52:35.553Z,1020.0
2023-05-11T11:53:35.528Z,1020.0
2023-05-11T11:54:35.559Z,1020.1
2023-05-11T11:55:35.593Z,1020.0
2023-05-11T11:56:35.582Z,1020.1
2023-05-11T11:57:35.551Z,1020.1
2023-05-11T11:58:35.543Z,1020.0
2023-05-11T11:59:35.521Z,1020.1
2023-05-11T12:00:35.565Z,1020.0
2023-05-11T12:01:35.517Z,1020.0
2023-05-11T12:02:35.659Z,1020.0
2023-05-11T12:03:35.652Z,1020.0
2023-05-11T12:04:35.627Z,1020.0
2023-05-11T12:05:35.502Z,1020.0
2023-05-11T12:06:35.529Z,1020.0
2023-05-11T12:07:35.544Z,1019.9
2023-05-11T12:08:35.659Z,1020.0
2023-05-11T12:09:35.557Z,1019.9
2023-05-11T12:10:35.564Z,1019.9
2023-05-11T12:11:35.473Z,1019.9
2023-05-11T12:12:35.517Z,1019.9
2023-05-11T12:13:35.486Z,1020.0
2023-05-11T12:14:35.497Z,1019.9
2023-05-11T12:15:35.525Z,1019.9
2023-05-11T12:16:35.541Z,1020.0
2023-05-11T12:17:35.642Z,1020.0
2023-05-11T12:18:35.557Z,1019.9
2023-05-11T12:19:35.588Z,1020.0
2023-05-11T12:20:35.507Z,1020.0
2023-05-11T12:21:35.477Z,1020.0
2023-05-11T12:22:35.500Z,1020.0
2023-05-11T12:23:35.524Z,1020.1
2023-05-11T12:24:35.478Z,1020.0
2023-05-11T12:25:35.481Z,1020.0
2023-05-11T12:26:35.474Z,1020.0
2023-05-11T12:27:35.474Z,1020.0
2023-05-11T12:28:35.505Z,1019.9
2023-05-11T12:29:35.462Z,1019.9
2023-05-11T12:30:35.661Z,1019.9
2023-05-11T12:31:35.481Z,1020.0
2023-05-11T12:32:35.555Z,1019.9